Time;durP1;ratioP1;P1;durP2;ratioP2;P2;SDS_P1;SDS_P2;PMS_P1;PMS_P2;Temp;Humidity;BMP_temperature;BMP_pressure;BME280_temperature;BME280_humidity;BME280_pressure;Samples;Min_cycle;Max_cycle;Signal;HPM_P1;HPM_P2
2024/01/06 00:00:12;;;;;;;14.80;8.30;;;;;;;-1.18;100.00;100245.48;105901;1251;61172;-55
2024/01/06 00:02:40;;;;;;;16.80;9.10;;;;;;;-1.19;100.00;100245.52;105959;1251;61330;-54
2024/01/06 00:05:07;;;;;;;15.60;8.40;;;;;;;-1.19;100.00;100246.91;106284;1254;74747;-54
2024/01/06 00:07:34;;;;;;;15.80;8.30;;;;;;;-1.19;100.00;100253.72;106194;1254;66167;-53
2024/01/06 00:10:01;;;;;;;13.00;7.30;;;;;;;-1.18;100.00;100264.70;105943;1251;71748;-54
2024/01/06 00:12:28;;;;;;;14.70;8.20;;;;;;;-1.17;100.00;100271.32;105871;1251;61275;-54
2024/01/06 00:14:55;;;;;;;14.20;8.50;;;;;;;-1.18;100.00;100271.39;106213;1251;61217;-54
2024/01/06 00:17:22;;;;;;;14.80;7.70;;;;;;;-1.21;100.00;100276.98;106042;1251;73138;-57
2024/01/06 00:19:52;;;;;;;16.50;9.70;;;;;;;-1.23;100.00;100267.39;105987;1254;65594;-55
2024/01/06 00:22:20;;;;;;;17.60;9.60;;;;;;;-1.25;100.00;100265.36;105738;1252;71758;-54
2024/01/06 00:24:48;;;;;;;17.40;8.80;;;;;;;-1.30;100.00;100274.71;105836;1251;61301;-54
2024/01/06 00:27:16;;;;;;;15.90;8.70;;;;;;;-1.32;100.00;100282.05;106281;1252;61163;-55
2024/01/06 00:29:43;;;;;;;15.10;8.80;;;;;;;-1.35;100.00;100286.83;105865;1254;74726;-54
2024/01/06 00:32:10;;;;;;;15.80;9.10;;;;;;;-1.36;100.00;100285.58;106107;1251;66031;-55
2024/01/06 00:34:36;;;;;;;16.70;9.00;;;;;;;-1.38;100.00;100287.08;105911;1254;72673;-53
2024/01/06 00:37:04;;;;;;;16.60;9.50;;;;;;;-1.39;100.00;100288.70;105931;1252;61194;-52
2024/01/06 00:39:31;;;;;;;14.70;8.60;;;;;;;-1.38;100.00;100292.21;105970;1254;61314;-55
2024/01/06 00:41:58;;;;;;;15.30;8.60;;;;;;;-1.38;100.00;100296.95;106410;1251;74083;-53
2024/01/06 00:44:25;;;;;;;19.10;9.40;;;;;;;-1.38;100.00;100300.02;105892;1254;66930;-53
2024/01/06 00:46:52;;;;;;;19.10;10.30;;;;;;;-1.39;100.00;100316.13;105930;1250;72643;-53
2024/01/06 00:49:19;;;;;;;17.00;10.50;;;;;;;-1.41;100.00;100325.13;105926;1251;62137;-53
2024/01/06 00:51:46;;;;;;;15.70;9.40;;;;;;;-1.41;100.00;100331.05;105867;1251;61222;-54
2024/01/06 00:54:13;;;;;;;14.80;8.60;;;;;;;-1.42;100.00;100329.81;105976;1251;73446;-52
2024/01/06 00:56:42;;;;;;;15.60;9.00;;;;;;;-1.45;100.00;100326.37;105980;1254;67041;-53
2024/01/06 00:59:09;;;;;;;17.90;10.20;;;;;;;-1.48;100.00;100322.18;105934;1251;72720;-52
2024/01/06 01:01:36;;;;;;;17.30;9.40;;;;;;;-1.53;100.00;100337.00;106211;1251;62145;-53
2024/01/06 01:04:03;;;;;;;16.90;10.40;;;;;;;-1.58;100.00;100347.91;105960;1251;61142;-54
2024/01/06 01:06:31;;;;;;;18.10;10.20;;;;;;;-1.65;100.00;100339.55;106033;1251;74608;-52
2024/01/06 01:08:58;;;;;;;16.80;9.40;;;;;;;-1.73;100.00;100341.59;105656;1251;66974;-52
2024/01/06 01:11:25;;;;;;;18.10;9.90;;;;;;;-1.83;100.00;100350.59;105778;1251;72401;-52
2024/01/06 01:13:52;;;;;;;16.80;9.70;;;;;;;-1.90;100.00;100368.11;106482;1253;61074;-55
2024/01/06 01:16:19;;;;;;;16.30;9.20;;;;;;;-1.96;100.00;100367.11;105927;1254;61264;-52
2024/01/06 01:18:46;;;;;;;15.00;9.10;;;;;;;-1.99;100.00;100362.19;105881;1254;75392;-53
2024/01/06 01:21:13;;;;;;;16.60;9.00;;;;;;;-2.00;100.00;100361.08;109452;1251;66685;-53
2024/01/06 01:23:39;;;;;;;16.50;9.40;;;;;;;-2.00;100.00;100353.42;107667;1250;72820;-52
2024/01/06 01:26:07;;;;;;;15.40;8.80;;;;;;;-2.02;100.00;100350.77;105850;1256;61332;-55
2024/01/06 01:28:33;;;;;;;15.30;8.70;;;;;;;-2.03;100.00;100354.63;105933;1254;61250;-52
2024/01/06 01:31:00;;;;;;;14.60;8.50;;;;;;;-2.05;100.00;100357.64;105554;1251;73502;-52
2024/01/06 01:33:28;;;;;;;15.20;8.50;;;;;;;-2.08;100.00;100361.61;105927;1256;67045;-52
2024/01/06 01:35:55;;;;;;;15.30;9.40;;;;;;;-2.10;100.00;100367.66;106083;1251;72652;-52
2024/01/06 01:38:23;;;;;;;18.90;9.30;;;;;;;-2.09;100.00;100380.09;105972;1256;61278;-52
2024/01/06 01:40:50;;;;;;;16.30;9.20;;;;;;;-2.10;100.00;100385.89;105572;1251;61243;-52
2024/01/06 01:43:20;;;;;;;16.00;8.50;;;;;;;-2.09;100.00;100387.34;105718;1251;74340;-52
2024/01/06 01:45:53;;;;;;;14.70;8.30;;;;;;;-2.08;100.00;100386.48;106319;1251;67200;-52
2024/01/06 01:48:21;;;;;;;15.60;9.10;;;;;;;-2.08;100.00;100383.58;105959;1251;72651;-52
2024/01/06 01:50:49;;;;;;;17.00;9.00;;;;;;;-2.09;100.00;100384.64;105851;1251;61270;-52
2024/01/06 01:53:16;;;;;;;15.30;8.50;;;;;;;-2.10;100.00;100380.45;105746;1256;61282;-52
2024/01/06 01:55:43;;;;;;;17.40;9.00;;;;;;;-2.11;100.00;100380.15;105915;1256;74470;-52
2024/01/06 01:58:10;;;;;;;16.40;9.80;;;;;;;-2.10;100.00;100386.80;106059;1251;67049;-53
2024/01/06 02:00:37;;;;;;;13.90;8.10;;;;;;;-2.11;100.00;100390.88;105700;1256;72692;-52
2024/01/06 02:03:04;;;;;;;15.80;8.40;;;;;;;-2.11;100.00;100386.67;105770;1256;61145;-52
2024/01/06 02:05:32;;;;;;;17.20;8.70;;;;;;;-2.12;100.00;100375.79;106270;1251;61232;-53
2024/01/06 02:07:58;;;;;;;15.70;8.40;;;;;;;-2.13;100.00;100373.17;105728;1251;73112;-52
2024/01/06 02:10:26;;;;;;;13.90;8.40;;;;;;;-2.16;100.00;100376.23;105563;1256;67605;-52
2024/01/06 02:12:53;;;;;;;15.30;8.00;;;;;;;-2.18;100.00;100379.44;105775;1256;70172;-51
2024/01/06 02:15:20;;;;;;;14.30;8.20;;;;;;;-2.19;100.00;100385.30;106068;1256;61332;-52
2024/01/06 02:17:47;;;;;;;14.00;7.40;;;;;;;-2.22;100.00;100390.09;106056;1256;61179;-52
2024/01/06 02:20:14;;;;;;;12.80;7.10;;;;;;;-2.24;100.00;100390.55;106238;1256;74501;-55
2024/01/06 02:22:41;;;;;;;15.30;8.50;;;;;;;-2.26;100.00;100397.80;105821;1251;65952;-51
2024/01/06 02:25:12;;;;;;;15.50;9.00;;;;;;;-2.26;100.00;100407.69;105733;1257;71902;-51
2024/01/06 02:27:39;;;;;;;12.90;6.50;;;;;;;-2.27;100.00;100407.55;106113;1251;61322;-51
2024/01/06 02:30:07;;;;;;;11.80;7.40;;;;;;;-2.26;100.00;100408.05;106317;1252;61355;-54
2024/01/06 02:32:34;;;;;;;14.50;7.70;;;;;;;-2.29;100.00;100406.65;105920;1251;73394;-52
2024/01/06 02:35:02;;;;;;;13.60;7.00;;;;;;;-2.32;100.00;100407.20;105888;1256;66020;-51
2024/01/06 02:37:29;;;;;;;16.30;7.40;;;;;;;-2.35;100.00;100414.02;106155;1255;71848;-52
2024/01/06 02:39:56;;;;;;;12.00;6.60;;;;;;;-2.37;100.00;100416.73;106021;1256;61282;-52
2024/01/06 02:42:24;;;;;;;11.90;7.00;;;;;;;-2.39;100.00;100421.45;105930;1251;61215;-51
2024/01/06 02:44:52;;;;;;;12.50;6.30;;;;;;;-2.41;100.00;100425.64;105807;1251;74554;-54
2024/01/06 02:47:19;;;;;;;11.60;6.40;;;;;;;-2.42;100.00;100419.79;105855;1255;64907;-53
2024/01/06 02:49:46;;;;;;;12.80;7.00;;;;;;;-2.43;100.00;100422.54;106228;1255;72474;-51
2024/01/06 02:52:13;;;;;;;11.70;6.20;;;;;;;-2.44;100.00;100426.84;106102;1251;61224;-53
2024/01/06 02:54:40;;;;;;;11.30;6.40;;;;;;;-2.44;100.00;100433.84;106089;1251;295309;-54
2024/01/06 02:57:07;;;;;;;9.40;5.60;;;;;;;-2.47;100.00;100432.64;105945;1255;74481;-53
2024/01/06 02:59:34;;;;;;;12.60;6.00;;;;;;;-2.49;100.00;100438.71;106015;1255;66847;-51
2024/01/06 03:02:02;;;;;;;9.30;4.80;;;;;;;-2.50;100.00;100445.27;105888;1256;72650;-51
2024/01/06 03:04:28;;;;;;;10.40;4.80;;;;;;;-2.50;100.00;100452.07;106061;1251;62669;-51
2024/01/06 03:06:56;;;;;;;9.50;5.00;;;;;;;-2.50;100.00;100450.70;105835;1251;61128;-51
2024/01/06 03:09:23;;;;;;;9.50;5.20;;;;;;;-2.50;100.00;100451.55;105914;1255;74980;-52
2024/01/06 03:11:50;;;;;;;10.80;5.70;;;;;;;-2.50;100.00;100453.08;105934;1251;67296;-52
2024/01/06 03:14:17;;;;;;;9.50;5.80;;;;;;;-2.49;100.00;100463.42;105783;1251;71664;-52
2024/01/06 03:16:44;;;;;;;13.30;5.50;;;;;;;-2.49;100.00;100463.06;105761;1257;61260;-52
2024/01/06 03:19:11;;;;;;;8.90;5.00;;;;;;;-2.49;100.00;100475.31;105870;1257;60969;-52
2024/01/06 03:21:38;;;;;;;8.60;4.70;;;;;;;-2.49;100.00;100481.95;105798;1256;74871;-53
2024/01/06 03:24:06;;;;;;;8.60;5.00;;;;;;;-2.52;100.00;100485.56;105953;1256;65593;-53
2024/01/06 03:26:33;;;;;;;11.10;5.40;;;;;;;-2.56;100.00;100485.46;105894;1251;72699;-53
2024/01/06 03:29:02;;;;;;;8.30;4.90;;;;;;;-2.59;100.00;100484.95;105807;1256;61319;-53
2024/01/06 03:31:29;;;;;;;8.00;4.60;;;;;;;-2.62;100.00;100490.74;106137;1252;61238;-52
2024/01/06 03:33:57;;;;;;;8.60;4.70;;;;;;;-2.64;100.00;100500.61;105860;1257;74707;-52
2024/01/06 03:36:24;;;;;;;7.40;3.90;;;;;;;-2.68;100.00;100493.30;105739;1255;67076;-53
2024/01/06 03:38:51;;;;;;;8.60;4.90;;;;;;;-2.69;100.00;100484.37;105745;1255;71202;-53
2024/01/06 03:41:18;;;;;;;8.40;4.20;;;;;;;-2.71;100.00;100482.75;105847;1251;61202;-52
2024/01/06 03:43:44;;;;;;;10.30;5.00;;;;;;;-2.72;100.00;100480.60;106325;1256;61112;-53
2024/01/06 03:46:11;;;;;;;8.70;4.60;;;;;;;-2.73;100.00;100487.33;106161;1253;73636;-56
2024/01/06 03:48:38;;;;;;;8.60;5.10;;;;;;;-2.74;100.00;100489.91;105869;1255;67257;-52
2024/01/06 03:51:07;;;;;;;9.50;5.20;;;;;;;-2.74;100.00;100495.85;105819;1252;73127;-52
2024/01/06 03:53:34;;;;;;;9.70;5.40;;;;;;;-2.74;100.00;100506.23;105726;1251;61336;-52
2024/01/06 03:56:01;;;;;;;11.20;5.50;;;;;;;-2.74;100.00;100511.20;105950;1251;61250;-55
2024/01/06 03:58:28;;;;;;;9.80;5.90;;;;;;;-2.75;100.00;100508.04;105838;1256;74758;-52
2024/01/06 04:00:55;;;;;;;9.70;5.30;;;;;;;-2.77;100.00;100512.20;106013;1255;65798;-52
2024/01/06 04:03:22;;;;;;;7.50;4.10;;;;;;;-2.80;100.00;100510.70;106049;1251;72660;-51
2024/01/06 04:05:49;;;;;;;9.60;5.00;;;;;;;-2.81;100.00;100519.62;105841;1251;61240;-53
2024/01/06 04:08:17;;;;;;;9.30;4.90;;;;;;;-2.82;100.00;100526.80;106011;1251;61249;-53
2024/01/06 04:10:44;;;;;;;10.80;5.60;;;;;;;-2.83;100.00;100528.91;106149;1255;74374;-52
2024/01/06 04:13:11;;;;;;;11.50;5.30;;;;;;;-2.86;100.00;100537.58;105907;1256;67246;-53
2024/01/06 04:15:38;;;;;;;9.40;5.30;;;;;;;-2.89;100.00;100548.29;105870;1256;72749;-52
2024/01/06 04:18:06;;;;;;;10.00;5.30;;;;;;;-2.91;100.00;100554.26;106050;1255;61279;-53
2024/01/06 04:20:33;;;;;;;9.30;5.40;;;;;;;-2.94;100.00;100564.07;106328;1251;61223;-53
2024/01/06 04:23:00;;;;;;;10.10;5.50;;;;;;;-2.95;100.00;100565.33;105924;1251;72858;-51
2024/01/06 04:25:27;;;;;;;9.40;5.30;;;;;;;-2.98;100.00;100576.73;106013;1256;67179;-51
2024/01/06 04:27:54;;;;;;;9.90;4.80;;;;;;;-2.99;100.00;100580.50;106041;1251;72674;-53
2024/01/06 04:30:21;;;;;;;9.50;5.50;;;;;;;-2.99;100.00;100584.58;105970;1257;61253;-53
2024/01/06 04:32:48;;;;;;;9.20;5.00;;;;;;;-2.98;100.00;100585.21;105993;1251;60188;-53
2024/01/06 04:35:15;;;;;;;10.90;5.90;;;;;;;-2.97;100.00;100578.36;106096;1251;74690;-53
2024/01/06 04:37:42;;;;;;;9.80;5.50;;;;;;;-2.93;100.00;100590.20;106111;1256;67158;-53
2024/01/06 04:40:10;;;;;;;10.50;4.80;;;;;;;-2.90;100.00;100593.08;105727;1252;71445;-53
2024/01/06 04:42:37;;;;;;;9.30;5.50;;;;;;;-2.87;100.00;100592.44;106227;1255;61256;-52
2024/01/06 04:45:05;;;;;;;11.90;6.00;;;;;;;-2.86;100.00;100601.91;105914;1251;61256;-52
2024/01/06 04:47:34;;;;;;;11.20;5.70;;;;;;;-2.88;100.00;100609.33;105900;1251;73424;-52
2024/01/06 04:50:02;;;;;;;10.30;5.60;;;;;;;-2.91;100.00;100616.79;106096;1256;66753;-53
2024/01/06 04:52:29;;;;;;;12.40;6.60;;;;;;;-2.91;100.00;100621.76;105848;1251;72496;-53
2024/01/06 04:54:56;;;;;;;10.90;5.30;;;;;;;-2.91;100.00;100620.39;106058;1257;61876;-53
2024/01/06 04:57:23;;;;;;;12.30;5.50;;;;;;;-2.91;100.00;100624.27;105865;1251;61259;-54
2024/01/06 04:59:50;;;;;;;10.90;6.00;;;;;;;-2.92;100.00;100634.02;105850;1256;74421;-53
2024/01/06 05:02:17;;;;;;;10.90;5.40;;;;;;;-2.90;100.00;100641.45;105868;1256;65925;-52
2024/01/06 05:04:44;;;;;;;9.80;5.40;;;;;;;-2.90;100.00;100650.21;106069;1257;72373;-52
2024/01/06 05:07:12;;;;;;;11.80;5.90;;;;;;;-2.88;100.00;100640.95;105861;1251;61240;-53
2024/01/06 05:09:39;;;;;;;11.40;5.70;;;;;;;-2.88;100.00;100637.02;105756;1251;61253;-52
2024/01/06 05:12:06;;;;;;;11.20;5.70;;;;;;;-2.90;100.00;100640.17;105767;1259;74487;-52
2024/01/06 05:14:33;;;;;;;10.20;5.80;;;;;;;-2.92;100.00;100631.45;105961;1256;67115;-55
2024/01/06 05:17:00;;;;;;;10.90;6.00;;;;;;;-2.93;100.00;100632.36;105822;1264;71143;-53
2024/01/06 05:19:28;;;;;;;11.60;6.10;;;;;;;-2.96;100.00;100633.73;105746;1252;61215;-53
2024/01/06 05:21:55;;;;;;;10.80;5.90;;;;;;;-2.98;100.00;100637.76;105961;1255;61242;-50
2024/01/06 05:24:22;;;;;;;13.30;6.60;;;;;;;-2.99;100.00;100634.95;105671;1256;74632;-52
2024/01/06 05:26:49;;;;;;;12.50;5.70;;;;;;;-3.00;100.00;100630.89;105803;1252;67300;-51
2024/01/06 05:29:17;;;;;;;8.90;5.20;;;;;;;-2.99;100.00;100637.67;106061;1257;72726;-52
2024/01/06 05:31:46;;;;;;;10.60;5.20;;;;;;;-2.98;100.00;100643.52;105828;1251;61141;-54
2024/01/06 05:34:13;;;;;;;11.70;6.10;;;;;;;-2.98;100.00;100638.10;105810;1257;60264;-50
2024/01/06 05:36:40;;;;;;;12.70;6.40;;;;;;;-2.99;100.00;100619.80;106141;1255;74748;-50
2024/01/06 05:39:07;;;;;;;10.30;5.90;;;;;;;-2.98;100.00;100606.99;105854;1256;66928;-51
2024/01/06 05:41:39;;;;;;;11.00;5.70;;;;;;;-2.96;100.00;100598.19;105891;1257;71695;-50
2024/01/06 05:44:05;;;;;;;;;;;;;;;-2.93;100.00;100602.79;106054;1256;61259;-56
2024/01/06 05:46:34;;;;;;;11.40;6.20;;;;;;;-2.91;100.00;100606.27;106230;1251;61150;-52
2024/01/06 05:49:00;;;;;;;12.30;6.60;;;;;;;-2.91;100.00;100614.26;106057;1251;74661;-52
2024/01/06 05:51:28;;;;;;;23.10;12.00;;;;;;;-2.89;100.00;100615.17;105894;1256;65843;-53
2024/01/06 05:53:55;;;;;;;13.90;7.90;;;;;;;-2.87;100.00;100618.25;105846;1257;71485;-52
2024/01/06 05:56:24;;;;;;;11.70;7.30;;;;;;;-2.85;100.00;100623.95;105933;1251;61138;-53
2024/01/06 05:58:52;;;;;;;14.30;7.60;;;;;;;-2.83;100.00;100626.70;105826;1257;60621;-52
2024/01/06 06:01:20;;;;;;;12.90;6.80;;;;;;;-2.79;100.00;100630.04;105753;1256;74409;-53
2024/01/06 06:03:50;;;;;;;11.10;6.10;;;;;;;-2.75;100.00;100633.02;105934;1257;67100;-52
2024/01/06 06:06:18;;;;;;;12.40;6.20;;;;;;;-2.72;100.00;100627.94;105828;1256;71730;-52
2024/01/06 06:08:45;;;;;;;10.60;6.10;;;;;;;-2.69;100.00;100637.64;105889;1257;61941;-51
2024/01/06 06:11:12;;;;;;;10.90;6.10;;;;;;;-2.65;100.00;100642.20;105768;1251;61336;-52
2024/01/06 06:13:40;;;;;;;11.40;6.30;;;;;;;-2.63;100.00;100652.41;105541;1256;74957;-52
2024/01/06 06:16:09;;;;;;;12.80;6.60;;;;;;;-2.59;100.00;100659.51;105883;1255;66820;-56
2024/01/06 06:18:36;;;;;;;9.80;5.40;;;;;;;-2.56;100.00;100664.30;105788;1257;71646;-53
2024/01/06 06:21:03;;;;;;;10.90;6.00;;;;;;;-2.54;100.00;100663.16;106003;1251;61176;-53
2024/01/06 06:23:31;;;;;;;11.40;7.00;;;;;;;-2.53;100.00;100654.38;105711;1256;61240;-52
2024/01/06 06:25:59;;;;;;;13.90;7.20;;;;;;;-2.50;100.00;100658.98;105907;1257;72712;-53
2024/01/06 06:28:26;;;;;;;11.90;6.50;;;;;;;-2.47;100.00;100672.41;105777;1256;64844;-53
2024/01/06 06:30:53;;;;;;;14.90;7.20;;;;;;;-2.44;100.00;100685.53;105818;1257;72547;-53
2024/01/06 06:33:20;;;;;;;11.30;6.60;;;;;;;-2.42;100.00;100693.09;105826;1251;61253;-52
2024/01/06 06:35:48;;;;;;;11.50;6.90;;;;;;;-2.40;100.00;100694.65;105873;1257;60183;-53
2024/01/06 06:38:15;;;;;;;13.30;7.20;;;;;;;-2.39;100.00;100698.19;105804;1252;73206;-53
2024/01/06 06:40:42;;;;;;;13.60;7.00;;;;;;;-2.39;100.00;100691.36;105775;1257;66614;-52
2024/01/06 06:43:09;;;;;;;12.80;6.90;;;;;;;-2.38;100.00;100691.48;105727;1255;71165;-52
2024/01/06 06:45:36;;;;;;;13.00;7.40;;;;;;;-2.38;100.00;100692.14;106206;1252;61142;-51
2024/01/06 06:48:03;;;;;;;17.30;9.50;;;;;;;-2.34;100.00;100693.48;106153;1255;61313;-52
2024/01/06 06:50:30;;;;;;;13.60;7.70;;;;;;;-2.30;100.00;100689.79;105768;1256;74687;-51
2024/01/06 06:52:57;;;;;;;13.40;7.80;;;;;;;-2.22;100.00;100696.29;105859;1257;67183;-51
2024/01/06 06:55:24;;;;;;;13.10;7.30;;;;;;;-2.13;100.00;100706.53;106035;1251;72749;-52
2024/01/06 06:57:51;;;;;;;12.20;7.10;;;;;;;-2.07;100.00;100702.07;105510;1252;61257;-50
2024/01/06 07:00:19;;;;;;;13.70;7.30;;;;;;;-2.04;100.00;100712.48;105966;1256;61237;-53
2024/01/06 07:02:46;;;;;;;14.30;7.40;;;;;;;-2.02;100.00;100712.13;105957;1251;74637;-51
2024/01/06 07:05:13;;;;;;;11.80;6.30;;;;;;;-2.00;100.00;100702.49;106015;1256;67191;-51
2024/01/06 07:07:40;;;;;;;11.20;6.60;;;;;;;-1.97;100.00;100704.21;105904;1251;72577;-53
2024/01/06 07:10:07;;;;;;;13.20;6.90;;;;;;;-1.94;100.00;100712.39;105901;1257;61228;-52
2024/01/06 07:12:34;;;;;;;13.10;7.10;;;;;;;-1.93;100.00;100726.45;105848;1254;61157;-51
2024/01/06 07:15:02;;;;;;;14.30;7.20;;;;;;;-1.95;100.00;100723.99;106112;1254;74675;-54
2024/01/06 07:17:34;;;;;;;13.00;6.70;;;;;;;-1.94;100.00;100727.72;106228;1250;67009;-53
2024/01/06 07:20:02;;;;;;;11.50;6.60;;;;;;;-1.93;100.00;100731.23;105950;1251;72915;-54
2024/01/06 07:22:29;;;;;;;11.40;6.50;;;;;;;-1.91;100.00;100734.02;106167;1254;61215;-53
2024/01/06 07:24:56;;;;;;;11.50;6.40;;;;;;;-1.89;100.00;100733.02;106021;1252;61328;-51
2024/01/06 07:27:23;;;;;;;11.80;6.50;;;;;;;-1.85;100.00;100723.43;106239;1251;74604;-55
2024/01/06 07:29:50;;;;;;;13.90;6.70;;;;;;;-1.82;100.00;100714.36;106081;1254;67268;-53
2024/01/06 07:32:17;;;;;;;14.50;7.30;;;;;;;-1.78;100.00;100718.92;106054;1253;72669;-53
2024/01/06 07:34:44;;;;;;;13.10;7.20;;;;;;;-1.78;100.00;100724.86;106108;1254;61249;-53
2024/01/06 07:37:11;;;;;;;12.30;6.50;;;;;;;-1.78;100.00;100731.85;106139;1251;61215;-56
2024/01/06 07:39:38;;;;;;;11.30;6.00;;;;;;;-1.78;100.00;100737.96;105708;1254;74569;-53
2024/01/06 07:42:05;;;;;;;12.90;6.40;;;;;;;-1.77;100.00;100746.83;106195;1256;67005;-53
2024/01/06 07:44:33;;;;;;;11.50;6.20;;;;;;;-1.78;100.00;100754.16;106125;1251;72563;-53
2024/01/06 07:47:01;;;;;;;12.60;6.70;;;;;;;-1.77;100.00;100757.54;106063;1252;61116;-54
2024/01/06 07:49:29;;;;;;;12.50;6.50;;;;;;;-1.75;100.00;100756.03;105834;1254;61352;-53
2024/01/06 07:51:56;;;;;;;13.30;6.70;;;;;;;-1.70;100.00;100756.59;105897;1254;75230;-53
2024/01/06 07:54:23;;;;;;;12.50;6.20;;;;;;;-1.64;100.00;100751.64;106218;1254;65919;-53
2024/01/06 07:56:50;;;;;;;10.30;6.00;;;;;;;-1.58;100.00;100751.23;106050;1251;73363;-55
2024/01/06 07:59:17;;;;;;;10.60;6.30;;;;;;;-1.51;100.00;100746.23;106216;1257;61132;-54
2024/01/06 08:01:44;;;;;;;14.30;6.80;;;;;;;-1.46;100.00;100746.94;105907;1254;61224;-51
2024/01/06 08:04:11;;;;;;;15.20;7.10;;;;;;;-1.43;100.00;100740.32;105912;1251;73166;-54
2024/01/06 08:06:38;;;;;;;13.80;7.20;;;;;;;-1.37;100.00;100742.31;105868;1254;65920;-54
2024/01/06 08:09:06;;;;;;;12.50;6.90;;;;;;;-1.28;100.00;100740.89;106411;1254;72560;-55
2024/01/06 08:11:33;;;;;;;13.00;6.60;;;;;;;-1.18;100.00;100745.59;106123;1256;61207;-54
2024/01/06 08:14:00;;;;;;;12.80;6.80;;;;;;;-1.11;100.00;100749.08;105854;1255;61378;-54
2024/01/06 08:16:26;;;;;;;12.60;6.50;;;;;;;-1.04;100.00;100758.55;105983;1251;73469;-53
2024/01/06 08:18:53;;;;;;;12.50;6.80;;;;;;;-1.00;100.00;100760.95;106298;1251;67182;-56
2024/01/06 08:21:21;;;;;;;12.10;6.30;;;;;;;-0.95;100.00;100765.29;106132;1254;72580;-54
2024/01/06 08:23:48;;;;;;;12.50;7.10;;;;;;;-0.87;100.00;100765.30;106150;1254;61228;-53
2024/01/06 08:26:15;;;;;;;14.20;7.10;;;;;;;-0.78;100.00;100763.18;106100;1254;61224;-54
2024/01/06 08:28:42;;;;;;;12.10;6.80;;;;;;;-0.66;100.00;100766.38;105848;1251;74702;-57
2024/01/06 08:31:09;;;;;;;12.00;6.50;;;;;;;-0.56;100.00;100757.34;105561;1251;67072;-54
2024/01/06 08:33:36;;;;;;;13.20;6.80;;;;;;;-0.48;100.00;100756.48;105910;1256;72744;-54
2024/01/06 08:36:03;;;;;;;11.30;6.20;;;;;;;-0.42;100.00;100750.29;106023;1255;61449;-55
2024/01/06 08:38:30;;;;;;;12.50;6.90;;;;;;;-0.39;100.00;100757.27;106163;1251;61264;-57
2024/01/06 08:40:57;;;;;;;13.20;7.10;;;;;;;-0.36;100.00;100764.56;106039;1251;74553;-54
2024/01/06 08:43:24;;;;;;;13.60;7.60;;;;;;;-0.34;100.00;100763.41;106016;1251;67308;-55
2024/01/06 08:45:51;;;;;;;13.30;7.20;;;;;;;-0.33;100.00;100759.73;106255;1254;71325;-55
2024/01/06 08:48:18;;;;;;;12.60;6.60;;;;;;;-0.33;100.00;100752.11;105913;1254;61230;-54
2024/01/06 08:50:46;;;;;;;11.80;6.10;;;;;;;-0.36;100.00;100729.38;106190;1254;61327;-55
2024/01/06 08:53:13;;;;;;;12.70;7.10;;;;;;;-0.34;100.00;100710.48;105657;1254;74687;-55
2024/01/06 08:55:40;;;;;;;12.90;7.80;;;;;;;-0.24;100.00;100692.60;106294;1251;65780;-55
2024/01/06 08:58:10;;;;;;;12.30;6.30;;;;;;;-0.15;100.00;100698.14;105958;1251;72667;-55
2024/01/06 09:00:37;;;;;;;12.40;6.60;;;;;;;-0.01;100.00;100717.52;105987;1251;60254;-56
2024/01/06 09:03:04;;;;;;;15.60;9.80;;;;;;;0.16;100.00;100723.82;105966;1254;61304;-57
2024/01/06 09:05:31;;;;;;;25.30;14.40;;;;;;;0.32;100.00;100726.70;106367;1251;75199;-54
2024/01/06 09:07:58;;;;;;;30.00;14.70;;;;;;;0.41;100.00;100722.63;106028;1251;65739;-54
2024/01/06 09:10:25;;;;;;;16.20;8.50;;;;;;;0.45;100.00;100725.64;105897;1251;72679;-55
2024/01/06 09:12:52;;;;;;;14.00;7.70;;;;;;;0.53;100.00;100740.63;105972;1251;61122;-56
2024/01/06 09:15:19;;;;;;;13.80;7.80;;;;;;;0.63;100.00;100748.97;106123;1251;61290;-56
2024/01/06 09:17:46;;;;;;;14.10;8.10;;;;;;;0.72;100.00;100776.60;106612;1251;74647;-56
2024/01/06 09:20:13;;;;;;;12.70;7.20;;;;;;;0.75;100.00;100799.86;105955;1254;65966;-56
2024/01/06 09:22:40;;;;;;;11.90;6.70;;;;;;;0.68;100.00;100807.50;105927;1251;72822;-55
2024/01/06 09:25:07;;;;;;;12.00;7.10;;;;;;;0.61;100.00;100776.30;106390;1254;61198;-57
2024/01/06 09:27:34;;;;;;;15.20;8.20;;;;;;;0.57;100.00;100781.58;105629;1250;61234;-55
2024/01/06 09:30:01;;;;;;;11.30;6.70;;;;;;;0.58;100.00;100780.34;106073;1251;73115;-55
2024/01/06 09:32:28;;;;;;;14.80;7.40;;;;;;;0.54;100.00;100771.20;105787;1251;67116;-55
2024/01/06 09:34:55;;;;;;;12.40;6.90;;;;;;;0.50;100.00;100763.61;105937;1254;71308;-55
2024/01/06 09:37:22;;;;;;;12.90;7.40;;;;;;;0.49;100.00;100752.70;105818;1251;61313;-55
2024/01/06 09:39:49;;;;;;;11.60;7.10;;;;;;;0.48;100.00;100749.04;106066;1250;61164;-55
2024/01/06 09:42:17;;;;;;;12.60;6.70;;;;;;;0.44;100.00;100734.91;105781;1251;74769;-55
2024/01/06 09:44:44;;;;;;;12.40;7.60;;;;;;;0.43;100.00;100713.95;105888;1254;65615;-56
2024/01/06 09:47:11;;;;;;;12.40;7.40;;;;;;;0.45;100.00;100703.55;105800;1250;70438;-55
2024/01/06 09:49:41;;;;;;;12.60;7.30;;;;;;;0.51;100.00;100703.48;105860;1251;61151;-57
2024/01/06 09:52:14;;;;;;;11.30;6.60;;;;;;;0.57;100.00;100691.27;105856;1251;61225;-55
2024/01/06 09:54:41;;;;;;;12.70;6.70;;;;;;;0.58;100.00;100695.45;106170;1251;74548;-56
2024/01/06 09:57:08;;;;;;;13.40;7.30;;;;;;;0.57;100.00;100698.44;105864;1252;67474;-55
2024/01/06 09:59:36;;;;;;;11.80;6.80;;;;;;;0.56;100.00;100695.09;106049;1254;72678;-55
2024/01/06 10:02:04;;;;;;;13.20;7.80;;;;;;;0.55;100.00;100688.48;105818;1252;61360;-57
2024/01/06 10:04:31;;;;;;;14.30;8.40;;;;;;;0.55;100.00;100687.65;106164;1251;61173;-55
2024/01/06 10:06:58;;;;;;;13.40;7.70;;;;;;;0.55;100.00;100694.88;105729;1251;73843;-56
2024/01/06 10:09:28;;;;;;;12.10;7.70;;;;;;;0.57;100.00;100697.80;105921;1251;67060;-55
2024/01/06 10:11:57;;;;;;;13.80;8.00;;;;;;;0.63;100.00;100700.08;105875;1251;71442;-55
2024/01/06 10:14:24;;;;;;;15.50;9.30;;;;;;;0.67;100.00;100702.23;106072;1252;61338;-55
2024/01/06 10:16:52;;;;;;;15.10;9.10;;;;;;;0.72;100.00;100707.31;106127;1254;61203;-54
2024/01/06 10:19:19;;;;;;;14.00;8.40;;;;;;;0.74;100.00;100709.55;105749;1251;74656;-55
2024/01/06 10:21:46;;;;;;;13.90;8.60;;;;;;;0.76;100.00;100696.59;105719;1251;66486;-55
2024/01/06 10:24:13;;;;;;;14.50;7.70;;;;;;;0.76;100.00;100692.52;105772;1254;74013;-55
2024/01/06 10:26:40;;;;;;;15.00;8.70;;;;;;;0.75;100.00;100680.59;106431;1251;61345;-57
2024/01/06 10:29:07;;;;;;;15.40;8.70;;;;;;;0.73;100.00;100681.70;105546;1254;61205;-57
2024/01/06 10:31:34;;;;;;;13.40;8.70;;;;;;;0.70;100.00;100690.14;105772;1251;74675;-57
2024/01/06 10:34:01;;;;;;;14.80;8.90;;;;;;;0.67;100.00;100693.81;105568;1251;67185;-58
2024/01/06 10:36:31;;;;;;;17.00;9.80;;;;;;;0.65;100.00;100688.01;105500;1257;73433;-56
2024/01/06 10:38:58;;;;;;;14.70;8.70;;;;;;;0.65;100.00;100667.94;106210;1254;61211;-56
2024/01/06 10:41:26;;;;;;;16.70;9.00;;;;;;;0.67;100.00;100661.79;105814;1254;61256;-54
2024/01/06 10:43:53;;;;;;;14.10;8.20;;;;;;;0.68;100.00;100666.17;105915;1256;74383;-55
2024/01/06 10:46:20;;;;;;;14.60;9.00;;;;;;;0.69;100.00;100673.80;105527;1257;66014;-54
2024/01/06 10:48:47;;;;;;;12.20;7.00;;;;;;;0.70;100.00;100675.96;105667;1256;71261;-55
2024/01/06 10:51:15;;;;;;;13.70;8.30;;;;;;;0.68;100.00;100671.16;105440;1257;61339;-56
2024/01/06 10:53:42;;;;;;;14.40;8.90;;;;;;;0.65;100.00;100658.34;105934;1251;61246;-54
2024/01/06 10:56:10;;;;;;;14.30;9.30;;;;;;;0.60;100.00;100653.27;105909;1256;74636;-54
2024/01/06 10:58:42;;;;;;;18.60;10.20;;;;;;;0.54;100.00;100643.92;105945;1256;67739;-56
2024/01/06 11:01:09;;;;;;;14.20;8.80;;;;;;;0.51;100.00;100647.45;105423;1251;71377;-54
2024/01/06 11:03:40;;;;;;;15.10;9.40;;;;;;;0.48;100.00;100647.94;105646;1256;61333;-55